Time;durP1;ratioP1;P1;durP2;ratioP2;P2;SDS_P1;SDS_P2;PMS_P1;PMS_P2;Temp;Humidity;BMP_temperature;BMP_pressure;BME280_temperature;BME280_humidity;BME280_pressure;Samples;Min_cycle;Max_cycle;Signal;HPM_P1;HPM_P2
2023/09/05 00:02:15;;;;;;;13.13;9.67;;;14.80;88.30;;;;;;5062385;28;20290;-66
2023/09/05 00:04:44;;;;;;;12.30;11.10;;;14.80;88.50;;;;;;5060596;28;20298;-66
2023/09/05 00:07:11;;;;;;;11.93;10.37;;;14.80;88.50;;;;;;5048681;28;20507;-66
2023/09/05 00:09:37;;;;;;;13.13;10.57;;;14.80;88.60;;;;;;5046484;28;20282;-66
2023/09/05 00:12:04;;;;;;;12.63;10.43;;;14.80;88.70;;;;;;5054386;28;20306;-66
2023/09/05 00:14:30;;;;;;;10.83;9.70;;;14.80;88.80;;;;;;5038621;28;20091;-66
2023/09/05 00:16:55;;;;;;;12.77;9.63;;;14.80;89.00;;;;;;5054856;28;20279;-66
2023/09/05 00:19:21;;;;;;;11.53;10.30;;;14.80;89.10;;;;;;5058594;28;20114;-66
2023/09/05 00:21:47;;;;;;;11.30;9.70;;;14.80;89.50;;;;;;5064179;28;20051;-66
2023/09/05 00:24:26;;;;;;;12.90;11.07;;;14.80;89.30;;;;;;5068605;28;20048;-66
2023/09/05 00:26:52;;;;;;;14.27;10.17;;;14.80;89.30;;;;;;5051799;28;20467;-66
2023/09/05 00:29:20;;;;;;;12.03;10.77;;;14.80;89.40;;;;;;5064084;28;20326;-66
2023/09/05 00:31:49;;;;;;;12.57;10.80;;;14.80;89.80;;;;;;5058284;28;20307;-66
2023/09/05 00:34:15;;;;;;;14.37;13.07;;;14.80;89.80;;;;;;5066109;28;20695;-66
2023/09/05 00:36:42;;;;;;;14.53;13.13;;;14.80;89.80;;;;;;5056664;28;20315;-66
2023/09/05 00:39:09;;;;;;;12.10;9.80;;;14.80;89.70;;;;;;5053441;28;20075;-66
2023/09/05 00:41:37;;;;;;;15.73;14.10;;;14.80;89.90;;;;;;5050586;28;20286;-66
2023/09/05 00:44:03;;;;;;;14.63;12.63;;;14.80;89.70;;;;;;5061233;28;20286;-66
2023/09/05 00:46:30;;;;;;;12.07;10.80;;;14.70;89.80;;;;;;5040647;28;20319;-66
2023/09/05 00:48:57;;;;;;;13.37;11.57;;;14.70;90.10;;;;;;5068278;28;20283;-66
2023/09/05 00:51:25;;;;;;;12.97;11.67;;;14.70;90.10;;;;;;5056610;28;20287;-66
2023/09/05 00:53:51;;;;;;;12.33;10.40;;;14.60;90.40;;;;;;5064795;28;20282;-66
2023/09/05 00:56:17;;;;;;;15.17;12.93;;;14.60;90.40;;;;;;5050862;28;20286;-66
2023/09/05 00:58:43;;;;;;;14.77;12.20;;;14.60;90.20;;;;;;5059723;28;20049;-66
2023/09/05 01:01:09;;;;;;;13.37;11.77;;;14.60;90.50;;;;;;5066138;28;20485;-66
2023/09/05 01:03:34;;;;;;;12.23;10.53;;;14.50;90.60;;;;;;5068831;28;20040;-66
2023/09/05 01:06:06;;;;;;;13.80;11.40;;;14.50;90.60;;;;;;5069847;28;20051;-66
2023/09/05 01:08:47;;;;;;;17.07;14.43;;;14.50;90.80;;;;;;5067084;28;20052;-66
2023/09/05 01:11:14;;;;;;;15.23;13.17;;;14.50;90.70;;;;;;5065712;28;20298;-66
2023/09/05 01:13:41;;;;;;;13.67;11.20;;;14.50;91.00;;;;;;5068819;28;20818;-66
2023/09/05 01:16:08;;;;;;;13.40;11.23;;;14.50;91.20;;;;;;5067911;28;20290;-66
2023/09/05 01:18:34;;;;;;;14.20;12.60;;;14.40;91.10;;;;;;5054963;28;20359;-66
2023/09/05 01:21:29;;;;;;;15.07;12.27;;;14.40;91.00;;;;;;5054004;28;20284;-66
2023/09/05 01:24:11;;;;;;;14.52;12.38;;;14.40;91.20;;;;;;5056246;28;20291;-66
2023/09/05 01:26:38;;;;;;;16.10;12.53;;;14.40;91.80;;;;;;5048586;28;20078;-66
2023/09/05 01:29:05;;;;;;;14.17;11.67;;;14.40;91.50;;;;;;5059498;28;20287;-66
2023/09/05 01:31:32;;;;;;;14.63;12.80;;;14.30;91.30;;;;;;5048385;28;20405;-66
2023/09/05 01:33:58;;;;;;;14.57;12.57;;;14.30;91.20;;;;;;5054527;28;20276;-66
2023/09/05 01:36:24;;;;;;;14.10;11.83;;;14.30;91.40;;;;;;5051702;28;21127;-66
2023/09/05 01:38:50;;;;;;;14.33;11.53;;;14.30;91.40;;;;;;5049157;28;20361;-66
2023/09/05 01:41:15;;;;;;;15.47;12.87;;;14.20;91.50;;;;;;5054081;28;20052;-66
2023/09/05 01:43:41;;;;;;;16.43;13.60;;;14.20;91.70;;;;;;5052443;28;20174;-66
2023/09/05 01:46:07;;;;;;;14.47;12.33;;;14.20;91.80;;;;;;5057616;28;20040;-66
2023/09/05 01:48:32;;;;;;;17.13;13.97;;;14.20;91.90;;;;;;5071453;28;20442;-66
2023/09/05 01:50:58;;;;;;;16.77;14.83;;;14.20;91.80;;;;;;5070761;28;20067;-66
2023/09/05 01:53:24;;;;;;;16.57;14.20;;;14.20;92.30;;;;;;5059356;28;20423;-66
2023/09/05 01:55:50;;;;;;;17.70;15.43;;;14.20;92.40;;;;;;5071335;28;20044;-66
2023/09/05 01:58:15;;;;;;;17.73;16.03;;;14.20;92.30;;;;;;5062769;28;20037;-66
2023/09/05 02:00:41;;;;;;;16.47;14.70;;;14.20;92.30;;;;;;5056976;28;20078;-66
2023/09/05 02:03:07;;;;;;;18.47;16.40;;;14.20;92.40;;;;;;5054674;28;20434;-66
2023/09/05 02:05:33;;;;;;;18.93;16.97;;;14.20;92.60;;;;;;5069394;28;20043;-66
2023/09/05 02:07:58;;;;;;;18.30;16.33;;;14.20;92.60;;;;;;5058037;28;20424;-66
2023/09/05 02:10:24;;;;;;;16.77;14.97;;;14.20;92.50;;;;;;5070836;28;20045;-66
2023/09/05 02:12:50;;;;;;;16.67;14.77;;;14.20;92.60;;;;;;5070578;28;20507;-66
2023/09/05 02:15:16;;;;;;;17.37;15.57;;;14.20;92.60;;;;;;5069730;28;20095;-66
2023/09/05 02:17:41;;;;;;;20.93;16.50;;;14.20;92.60;;;;;;5070355;28;20286;-66
2023/09/05 02:20:07;;;;;;;18.67;16.73;;;14.10;92.70;;;;;;5054113;28;20505;-66
2023/09/05 02:22:33;;;;;;;17.77;16.03;;;14.10;92.70;;;;;;5058499;28;20037;-66
2023/09/05 02:25:01;;;;;;;18.23;16.43;;;14.10;92.90;;;;;;5070243;28;20308;-66
2023/09/05 02:27:27;;;;;;;16.03;14.10;;;14.10;93.20;;;;;;5062747;28;20044;-66
2023/09/05 02:29:56;;;;;;;16.90;15.10;;;14.10;93.40;;;;;;5058222;28;20369;-66
2023/09/05 02:32:25;;;;;;;16.90;14.33;;;14.10;93.40;;;;;;5063925;28;20309;-66
2023/09/05 02:34:52;;;;;;;16.87;14.50;;;14.10;93.70;;;;;;5058366;28;20304;-66
2023/09/05 02:37:18;;;;;;;16.50;14.90;;;14.10;93.60;;;;;;5040049;28;20287;-66
2023/09/05 02:39:44;;;;;;;17.47;15.17;;;14.10;93.60;;;;;;5064100;28;20285;-66
2023/09/05 02:42:10;;;;;;;16.03;13.53;;;14.10;93.60;;;;;;5051771;28;20288;-66
2023/09/05 02:44:35;;;;;;;16.00;14.30;;;14.10;93.60;;;;;;5070816;28;20048;-66
2023/09/05 02:47:01;;;;;;;17.80;14.47;;;14.10;93.60;;;;;;5067597;28;20119;-66
2023/09/05 02:49:27;;;;;;;15.87;13.97;;;14.10;93.60;;;;;;5071115;28;20078;-66
2023/09/05 02:51:52;;;;;;;17.10;15.30;;;14.10;93.60;;;;;;5070509;28;20074;-66
2023/09/05 02:54:18;;;;;;;16.43;14.73;;;14.10;94.10;;;;;;5053832;28;20041;-66
2023/09/05 02:56:44;;;;;;;17.17;13.63;;;14.10;94.40;;;;;;5046460;28;20044;-66
2023/09/05 02:59:10;;;;;;;17.10;14.80;;;14.10;94.10;;;;;;5066016;28;20040;-66
2023/09/05 03:01:36;;;;;;;15.40;13.73;;;14.00;94.10;;;;;;5056055;28;20148;-66
2023/09/05 03:04:01;;;;;;;14.67;13.27;;;14.00;93.90;;;;;;5070141;28;20068;-66
2023/09/05 03:06:27;;;;;;;16.57;14.73;;;14.00;93.90;;;;;;5062369;28;21200;-66
2023/09/05 03:08:53;;;;;;;16.90;13.97;;;14.00;93.60;;;;;;5070170;28;20443;-66
2023/09/05 03:11:19;;;;;;;14.70;13.20;;;14.00;93.50;;;;;;5062389;28;20061;-66
2023/09/05 03:13:46;;;;;;;16.73;13.23;;;14.00;93.50;;;;;;5046883;28;20048;-66
2023/09/05 03:16:12;;;;;;;16.93;14.27;;;13.90;93.40;;;;;;5052681;28;20327;-66
2023/09/05 03:18:38;;;;;;;16.80;14.40;;;13.90;93.20;;;;;;5047088;28;20303;-66
2023/09/05 03:21:04;;;;;;;16.37;13.83;;;13.90;93.30;;;;;;5052534;28;20344;-66
2023/09/05 03:23:30;;;;;;;15.10;13.50;;;13.90;93.30;;;;;;5060513;28;21003;-66
2023/09/05 03:25:56;;;;;;;17.00;13.83;;;13.80;93.20;;;;;;5061603;28;20127;-66
2023/09/05 03:28:22;;;;;;;15.73;13.03;;;13.80;93.40;;;;;;5068029;28;20048;-66
2023/09/05 03:30:48;;;;;;;16.83;15.13;;;13.80;93.30;;;;;;5067053;28;20382;-66
2023/09/05 03:33:14;;;;;;;15.27;13.67;;;13.70;93.60;;;;;;5039240;28;20378;-67
2023/09/05 03:35:42;;;;;;;16.43;14.83;;;13.70;93.70;;;;;;5046262;28;20136;-67
2023/09/05 03:38:07;;;;;;;15.70;14.00;;;13.70;93.80;;;;;;5043384;28;20298;-67
2023/09/05 03:40:34;;;;;;;16.00;14.30;;;13.70;93.90;;;;;;5053940;28;20271;-67
2023/09/05 03:43:00;;;;;;;15.97;14.10;;;13.70;94.00;;;;;;5040685;28;20087;-67
2023/09/05 03:45:30;;;;;;;17.87;13.50;;;13.70;93.90;;;;;;5043123;28;20274;-67
2023/09/05 03:47:56;;;;;;;17.53;13.83;;;13.60;93.80;;;;;;5057702;28;20055;-67
2023/09/05 03:50:21;;;;;;;17.23;12.47;;;13.60;94.10;;;;;;5038423;28;20295;-67
2023/09/05 03:52:47;;;;;;;16.57;14.87;;;13.60;93.90;;;;;;5058049;28;20101;-67
2023/09/05 03:55:13;;;;;;;16.10;14.40;;;13.60;94.00;;;;;;5044022;28;20059;-67
2023/09/05 03:57:39;;;;;;;15.40;12.00;;;13.70;94.30;;;;;;5051892;28;20044;-67
2023/09/05 04:00:07;;;;;;;16.33;14.53;;;13.60;94.20;;;;;;5057144;28;20338;-67
2023/09/05 04:02:33;;;;;;;13.17;11.77;;;13.60;94.40;;;;;;5058366;28;20048;-67
2023/09/05 04:04:58;;;;;;;14.80;13.07;;;13.60;94.20;;;;;;5055456;28;20699;-67
2023/09/05 04:07:24;;;;;;;14.73;12.63;;;13.60;94.50;;;;;;5061918;28;20036;-67
2023/09/05 04:09:50;;;;;;;18.67;13.57;;;13.60;94.50;;;;;;5059361;28;20091;-67
2023/09/05 04:12:16;;;;;;;16.20;12.00;;;13.60;94.30;;;;;;5057150;28;20526;-67
2023/09/05 04:14:41;;;;;;;14.13;11.67;;;13.60;94.30;;;;;;5055786;28;20068;-67
2023/09/05 04:17:07;;;;;;;15.47;12.33;;;13.60;94.20;;;;;;5039724;28;20032;-67
2023/09/05 04:19:33;;;;;;;15.77;13.87;;;13.60;94.30;;;;;;5056239;28;20127;-67
2023/09/05 04:21:58;;;;;;;13.50;10.13;;;13.60;94.20;;;;;;5063421;28;20051;-67
2023/09/05 04:24:24;;;;;;;13.80;11.27;;;13.60;94.20;;;;;;5063822;28;20484;-67
2023/09/05 04:26:50;;;;;;;15.40;11.53;;;13.60;94.30;;;;;;5060026;28;20048;-67
2023/09/05 04:29:17;;;;;;;15.13;12.03;;;13.60;94.50;;;;;;5061422;28;20101;-67
2023/09/05 04:31:42;;;;;;;14.33;11.87;;;13.60;94.50;;;;;;5057643;28;20846;-67
2023/09/05 04:34:08;;;;;;;14.10;11.83;;;13.60;94.40;;;;;;5068299;28;20286;-67
2023/09/05 04:36:36;;;;;;;15.37;10.90;;;13.60;94.60;;;;;;5056953;28;20435;-67
2023/09/05 04:39:04;;;;;;;13.60;11.40;;;13.60;94.60;;;;;;5042927;28;20552;-67
2023/09/05 04:41:30;;;;;;;12.80;11.47;;;13.60;94.40;;;;;;5045539;28;20318;-67
2023/09/05 04:43:56;;;;;;;14.50;12.27;;;13.60;94.60;;;;;;5065326;28;20700;-67
2023/09/05 04:46:22;;;;;;;18.43;13.80;;;13.60;94.70;;;;;;5056531;28;20032;-67
2023/09/05 04:48:49;;;;;;;15.80;12.33;;;13.60;94.60;;;;;;5047866;28;20040;-67
2023/09/05 04:51:15;;;;;;;16.80;12.20;;;13.60;94.70;;;;;;5057470;28;20295;-67
2023/09/05 04:53:40;;;;;;;14.53;12.33;;;13.60;95.00;;;;;;5056883;28;20349;-67
2023/09/05 04:56:06;;;;;;;14.00;11.80;;;13.60;94.60;;;;;;5050944;28;20318;-67
2023/09/05 04:58:33;;;;;;;12.63;11.33;;;13.60;95.10;;;;;;5050917;28;20036;-67
2023/09/05 05:01:02;;;;;;;15.40;11.77;;;13.60;94.70;;;;;;5061974;28;20396;-67
2023/09/05 05:03:32;;;;;;;15.00;12.37;;;13.60;94.70;;;;;;5053314;28;20295;-67
2023/09/05 05:05:58;;;;;;;14.07;11.73;;;13.60;94.60;;;;;;5058646;28;20299;-67
2023/09/05 05:08:24;;;;;;;15.17;12.07;;;13.60;94.70;;;;;;5040789;28;20294;-67
2023/09/05 05:10:50;;;;;;;15.70;12.03;;;13.60;94.90;;;;;;5052505;28;20654;-67
2023/09/05 05:13:16;;;;;;;14.47;11.83;;;13.60;95.00;;;;;;5055568;28;20695;-67
2023/09/05 05:15:46;;;;;;;14.17;11.57;;;13.60;94.90;;;;;;5048286;28;20289;-67
2023/09/05 05:18:13;;;;;;;15.90;11.20;;;13.60;94.70;;;;;;5058844;28;20291;-67
2023/09/05 05:20:38;;;;;;;13.43;11.20;;;13.60;94.80;;;;;;5067427;28;20279;-67
2023/09/05 05:23:05;;;;;;;15.03;11.27;;;13.60;94.90;;;;;;5066145;28;20645;-67
2023/09/05 05:25:32;;;;;;;14.53;11.03;;;13.60;94.60;;;;;;5050655;28;20040;-67
2023/09/05 05:27:58;;;;;;;14.97;12.33;;;13.60;94.70;;;;;;5050841;28;20287;-67
2023/09/05 05:30:23;;;;;;;13.87;11.63;;;13.60;94.80;;;;;;5054310;28;20297;-67
2023/09/05 05:32:49;;;;;;;15.07;11.70;;;13.60;94.60;;;;;;5054052;28;20125;-67
2023/09/05 05:35:15;;;;;;;98.40;93.17;;;13.60;94.70;;;;;;5054594;28;20028;-67
2023/09/05 05:37:40;;;;;;;124.27;118.07;;;13.70;94.90;;;;;;5060793;28;20036;-67
2023/09/05 05:40:10;;;;;;;140.13;133.30;;;13.70;94.80;;;;;;5039587;28;20102;-67
2023/09/05 05:42:36;;;;;;;118.03;112.30;;;13.70;95.00;;;;;;5045494;28;20113;-67
2023/09/05 05:45:02;;;;;;;70.87;66.97;;;13.80;95.00;;;;;;5068156;28;20665;-67
2023/09/05 05:47:28;;;;;;;153.87;146.63;;;13.80;95.00;;;;;;5056284;28;20287;-67
2023/09/05 05:49:53;;;;;;;103.30;98.13;;;13.90;95.00;;;;;;5040452;28;20033;-67
2023/09/05 05:52:19;;;;;;;144.87;138.03;;;13.90;94.90;;;;;;5038594;28;20119;-67
2023/09/05 05:54:45;;;;;;;105.73;100.37;;;14.00;94.70;;;;;;5054885;28;20033;-67
2023/09/05 05:57:11;;;;;;;139.43;132.70;;;14.10;94.50;;;;;;5054631;28;20283;-67
2023/09/05 05:59:40;;;;;;;86.30;81.67;;;14.10;94.70;;;;;;5037144;28;20071;-67
2023/09/05 06:02:05;;;;;;;109.33;103.93;;;14.20;94.70;;;;;;5058906;28;20106;-67
2023/09/05 06:04:31;;;;;;;171.47;163.23;;;14.30;94.60;;;;;;5056800;28;20290;-67
2023/09/05 06:06:57;;;;;;;190.20;181.40;;;14.40;94.70;;;;;;5055923;28;20455;-67
2023/09/05 06:09:22;;;;;;;114.20;108.33;;;14.50;94.40;;;;;;5062811;28;20044;-67
2023/09/05 06:11:48;;;;;;;173.33;165.27;;;14.60;94.30;;;;;;5055995;28;20041;-67
2023/09/05 06:14:14;;;;;;;103.53;98.07;;;14.60;94.20;;;;;;5039499;28;20076;-67
2023/09/05 06:16:40;;;;;;;143.40;136.33;;;14.70;94.10;;;;;;5056818;28;20061;-67
2023/09/05 06:19:08;;;;;;;143.13;136.27;;;14.70;94.30;;;;;;5059291;28;20286;-67
2023/09/05 06:21:34;;;;;;;73.10;69.23;;;14.80;94.00;;;;;;5053069;28;20283;-67
2023/09/05 06:24:00;;;;;;;186.10;177.57;;;14.90;94.00;;;;;;5044644;28;20784;-67
2023/09/05 06:26:25;;;;;;;149.53;142.47;;;15.00;93.90;;;;;;5050860;28;20358;-67
2023/09/05 06:28:52;;;;;;;116.30;110.67;;;15.00;93.90;;;;;;5055119;28;20400;-67
2023/09/05 06:31:17;;;;;;;118.47;112.70;;;15.10;93.80;;;;;;5061853;28;20123;-67
2023/09/05 06:33:43;;;;;;;104.00;98.63;;;15.20;93.60;;;;;;5041859;28;20906;-68
2023/09/05 06:36:11;;;;;;;136.00;129.40;;;15.30;93.50;;;;;;5063918;28;20040;-68
2023/09/05 06:38:37;;;;;;;128.93;122.77;;;15.40;93.20;;;;;;5050313;28;20439;-68
2023/09/05 06:41:06;;;;;;;116.63;110.90;;;15.60;93.20;;;;;;5056395;28;20285;-68
2023/09/05 06:43:32;;;;;;;141.67;134.80;;;15.70;92.90;;;;;;5065281;28;20287;-68
2023/09/05 06:46:05;;;;;;;90.33;85.70;;;15.80;92.70;;;;;;5044770;28;20724;-68
2023/09/05 06:48:31;;;;;;;156.63;149.33;;;15.90;92.60;;;;;;5062922;28;20788;-68
2023/09/05 06:50:58;;;;;;;98.83;93.87;;;16.00;92.30;;;;;;5055674;28;20302;-67
2023/09/05 06:53:28;;;;;;;89.67;85.07;;;16.10;92.00;;;;;;5066830;28;20051;-68
2023/09/05 06:55:54;;;;;;;85.17;80.63;;;16.20;91.90;;;;;;5067322;28;20824;-68
2023/09/05 06:58:24;;;;;;;94.20;89.17;;;16.30;91.80;;;;;;5062280;28;20327;-68
2023/09/05 07:00:54;;;;;;;110.97;105.73;;;16.40;91.60;;;;;;5041124;28;20389;-68
2023/09/05 07:03:23;;;;;;;63.80;60.30;;;16.50;91.40;;;;;;5063088;28;20318;-68
2023/09/05 07:05:51;;;;;;;125.83;119.77;;;16.70;91.20;;;;;;5062775;28;20317;-68
2023/09/05 07:08:16;;;;;;;123.77;117.63;;;16.70;90.80;;;;;;5058092;28;20298;-67
2023/09/05 07:10:42;;;;;;;166.17;158.57;;;16.90;90.70;;;;;;5043317;28;20365;-67
2023/09/05 07:13:08;;;;;;;154.60;147.43;;;17.00;90.20;;;;;;5037869;28;20048;-67
2023/09/05 07:15:33;;;;;;;179.90;171.80;;;17.10;90.20;;;;;;5060384;28;20048;-67
2023/09/05 07:17:59;;;;;;;185.53;177.10;;;17.20;89.90;;;;;;5040016;28;20400;-67
2023/09/05 07:20:25;;;;;;;182.17;173.83;;;17.30;89.90;;;;;;5062532;28;20055;-67
2023/09/05 07:22:51;;;;;;;164.30;156.57;;;17.50;89.90;;;;;;5061371;28;20075;-67
2023/09/05 07:25:18;;;;;;;142.77;135.87;;;17.60;89.60;;;;;;5047621;28;20048;-67
2023/09/05 07:27:43;;;;;;;124.90;118.87;;;17.70;89.60;;;;;;5042055;28;20040;-67
2023/09/05 07:30:09;;;;;;;197.47;188.47;;;17.90;89.40;;;;;;5066585;28;20298;-67
2023/09/05 07:32:36;;;;;;;119.63;113.73;;;18.00;89.40;;;;;;5062236;28;20051;-67
2023/09/05 07:35:03;;;;;;;163.50;155.77;;;18.10;89.00;;;;;;5069516;28;20495;-67
2023/09/05 07:37:29;;;;;;;143.10;136.17;;;18.30;88.20;;;;;;5052181;28;20279;-66
2023/09/05 07:39:54;;;;;;;122.43;116.43;;;18.40;88.50;;;;;;5068894;28;20279;-66
2023/09/05 07:42:20;;;;;;;137.13;130.33;;;18.50;88.20;;;;;;5055291;28;20101;-66
2023/09/05 07:44:46;;;;;;;117.57;111.73;;;18.70;87.20;;;;;;5061037;28;20063;-66
2023/09/05 07:47:12;;;;;;;139.97;133.33;;;18.80;86.60;;;;;;5059243;28;20041;-66
2023/09/05 07:49:40;;;;;;;141.17;134.57;;;18.90;86.30;;;;;;5040534;28;20069;-66
2023/09/05 07:52:07;;;;;;;128.90;122.70;;;19.00;85.50;;;;;;5057188;28;20083;-66
2023/09/05 07:54:35;;;;;;;121.67;115.73;;;19.20;85.70;;;;;;5057215;28;20353;-66
2023/09/05 07:57:00;;;;;;;96.37;91.37;;;19.30;85.60;;;;;;5038371;28;20443;-66
2023/09/05 07:59:26;;;;;;;110.33;104.93;;;19.40;85.60;;;;;;5040299;28;20036;-66
2023/09/05 08:01:52;;;;;;;101.67;96.60;;;19.60;84.70;;;;;;5041065;28;20036;-67
2023/09/05 08:04:17;;;;;;;136.93;130.13;;;19.70;84.50;;;;;;5068937;28;20040;-67
2023/09/05 08:06:43;;;;;;;78.20;73.83;;;19.80;84.50;;;;;;5051315;28;20115;-67
2023/09/05 08:09:09;;;;;;;74.53;70.63;;;19.90;83.70;;;;;;5048806;28;20040;-67
2023/09/05 08:11:34;;;;;;;95.43;90.63;;;20.10;83.50;;;;;;5070122;28;20044;-67
2023/09/05 08:14:00;;;;;;;66.27;62.87;;;20.20;83.10;;;;;;5061501;28;20067;-67
2023/09/05 08:16:27;;;;;;;89.47;85.00;;;20.30;82.70;;;;;;5066632;28;20130;-67
2023/09/05 08:18:52;;;;;;;91.27;86.73;;;20.40;82.30;;;;;;5058255;28;20492;-67
2023/09/05 08:21:18;;;;;;;76.23;72.23;;;20.50;82.50;;;;;;5068389;28;20044;-67
2023/09/05 08:23:44;;;;;;;76.43;72.57;;;20.60;81.80;;;;;;5059453;28;20040;-67
2023/09/05 08:26:10;;;;;;;86.83;82.40;;;20.70;81.50;;;;;;5065741;28;20072;-68
2023/09/05 08:28:42;;;;;;;71.83;67.90;;;20.80;82.00;;;;;;5050270;28;20408;-68
2023/09/05 08:31:09;;;;;;;82.60;78.43;;;21.00;80.80;;;;;;5063002;28;20040;-68
2023/09/05 08:33:35;;;;;;;78.37;74.30;;;21.10;80.50;;;;;;5060084;28;20045;-68
2023/09/05 08:36:01;;;;;;;85.30;80.83;;;21.30;79.90;;;;;;5055459;28;20055;-68
2023/09/05 08:38:26;;;;;;;84.60;80.27;;;21.40;79.00;;;;;;5054051;28;20579;-68
2023/09/05 08:40:52;;;;;;;74.10;70.10;;;21.50;79.40;;;;;;5053950;28;20051;-69
2023/09/05 08:43:18;;;;;;;76.83;72.67;;;21.70;79.10;;;;;;5053315;28;20135;-69
2023/09/05 08:45:45;;;;;;;85.33;80.70;;;21.80;79.20;;;;;;5056731;28;20446;-68
2023/09/05 08:48:11;;;;;;;83.13;78.80;;;21.90;78.70;;;;;;5056376;28;20048;-68
2023/09/05 08:50:40;;;;;;;71.80;67.73;;;22.10;77.50;;;;;;5036167;28;20105;-68
2023/09/05 08:53:11;;;;;;;76.63;72.50;;;22.20;77.80;;;;;;5053834;28;20045;-69
2023/09/05 08:55:40;;;;;;;61.63;58.23;;;22.30;77.40;;;;;;5034580;28;20052;-68
2023/09/05 08:58:10;;;;;;;61.97;58.67;;;22.40;77.10;;;;;;5052337;28;20091;-68
2023/09/05 09:00:36;;;;;;;63.50;59.80;;;22.50;77.10;;;;;;5054350;28;20036;-68
2023/09/05 09:03:05;;;;;;;72.10;68.20;;;22.50;76.90;;;;;;5049514;28;20668;-68
2023/09/05 09:05:31;;;;;;;72.33;68.43;;;22.60;76.70;;;;;;5037017;28;20105;-69
2023/09/05 09:07:57;;;;;;;69.40;65.53;;;22.80;74.80;;;;;;5032332;28;20123;-68
2023/09/05 09:10:23;;;;;;;78.23;74.03;;;22.90;75.20;;;;;;5047442;28;20412;-68
2023/09/05 09:13:12;;;;;;;72.23;68.20;;;23.00;73.80;;;;;;5056523;28;20049;-68
2023/09/05 09:15:42;;;;;;;64.13;60.57;;;23.10;74.10;;;;;;5057193;28;20041;-68
2023/09/05 09:18:13;;;;;;;84.37;80.00;;;23.30;72.70;;;;;;5050094;28;20040;-69
2023/09/05 09:20:46;;;;;;;100.73;95.17;;;23.40;72.70;;;;;;5051383;28;20131;-67
2023/09/05 09:23:23;;;;;;;94.17;89.00;;;23.50;71.20;;;;;;5043159;28;20040;-68
2023/09/05 09:25:49;;;;;;;85.57;81.00;;;23.60;71.20;;;;;;5059840;28;20048;-69
2023/09/05 09:28:22;;;;;;;67.37;63.77;;;23.70;71.60;;;;;;5058986;28;20075;-69
2023/09/05 09:30:59;;;;;;;76.47;72.43;;;23.90;71.30;;;;;;5056071;28;20044;-69
2023/09/05 09:33:25;;;;;;;90.57;86.03;;;24.00;71.30;;;;;;5053557;28;20048;-69
2023/09/05 09:36:00;;;;;;;87.87;83.17;;;24.20;71.50;;;;;;5057146;28;20044;-69
2023/09/05 09:38:26;;;;;;;82.67;78.50;;;24.40;70.00;;;;;;5058634;28;20083;-69
2023/09/05 09:40:52;;;;;;;98.97;93.90;;;24.50;70.10;;;;;;5049540;28;20037;-70
2023/09/05 09:43:18;;;;;;;110.03;103.90;;;24.70;68.90;;;;;;5048146;28;20055;-69
2023/09/05 09:45:44;;;;;;;95.17;90.27;;;24.80;67.00;;;;;;5046323;28;20048;-69
2023/09/05 09:48:14;;;;;;;95.97;91.17;;;24.90;67.00;;;;;;5048594;28;20151;-69
2023/09/05 09:50:41;;;;;;;101.80;96.50;;;25.00;65.20;;;;;;5049333;28;20087;-69
2023/09/05 09:53:11;;;;;;;95.27;89.90;;;25.10;66.00;;;;;;5056498;28;20509;-69
2023/09/05 09:55:43;;;;;;;94.23;89.40;;;25.20;64.70;;;;;;5064241;28;20048;-69
2023/09/05 09:58:14;;;;;;;90.13;85.13;;;25.30;64.20;;;;;;5052443;28;20051;-69
2023/09/05 10:00:45;;;;;;;93.27;88.20;;;25.40;64.60;;;;;;5042447;28;20032;-70
2023/09/05 10:03:13;;;;;;;132.57;125.50;;;25.40;64.90;;;;;;5046897;28;20131;-70
2023/09/05 10:05:41;;;;;;;119.40;112.80;;;25.50;64.50;;;;;;5059797;28;20070;-69
2023/09/05 10:08:11;;;;;;;107.27;101.60;;;25.60;62.90;;;;;;5047783;28;20041;-69
2023/09/05 10:10:41;;;;;;;112.57;106.63;;;25.70;63.40;;;;;;5038974;28;20559;-69
2023/09/05 10:13:11;;;;;;;121.53;114.80;;;25.80;63.30;;;;;;5045975;28;20086;-69
2023/09/05 10:15:39;;;;;;;129.03;122.00;;;25.90;63.20;;;;;;5059647;28;20513;-69
2023/09/05 10:18:09;;;;;;;108.80;102.93;;;26.00;62.10;;;;;;5059341;28;20048;-69
2023/09/05 10:20:37;;;;;;;109.97;104.17;;;26.10;62.50;;;;;;5056809;28;20039;-69
2023/09/05 10:23:06;;;;;;;127.77;120.53;;;26.20;61.50;;;;;;5055744;28;20438;-69
2023/09/05 10:25:35;;;;;;;120.43;114.07;;;26.30;60.30;;;;;;5056237;28;20044;-68
2023/09/05 10:28:01;;;;;;;112.60;106.53;;;26.30;61.50;;;;;;5065451;28;20740;-68
2023/09/05 10:30:43;;;;;;;117.83;111.03;;;26.50;61.80;;;;;;5067357;28;20051;-68
2023/09/05 10:33:09;;;;;;;114.37;108.10;;;26.60;59.40;;;;;;5058799;28;20056;-67
2023/09/05 10:35:35;;;;;;;119.70;113.00;;;26.60;60.40;;;;;;5063919;28;20166;-67
2023/09/05 10:38:04;;;;;;;119.13;112.47;;;26.70;59.80;;;;;;5067079;28;20060;-67
2023/09/05 10:40:38;;;;;;;119.07;111.90;;;26.80;59.80;;;;;;5041252;28;20048;-67
2023/09/05 10:43:09;;;;;;;136.23;127.95;;;26.90;59.00;;;;;;5056733;28;20087;-68
2023/09/05 10:45:37;;;;;;;130.30;122.90;;;26.90;58.60;;;;;;5054405;28;20064;-67
2023/09/05 10:48:15;;;;;;;162.47;153.43;;;27.00;58.10;;;;;;5060734;28;20035;-66
2023/09/05 10:51:07;;;;;;;118.03;111.23;;;27.10;58.40;;;;;;5059146;28;20048;-67
2023/09/05 10:53:38;;;;;;;144.07;135.77;;;27.20;58.20;;;;;;5067148;28;20044;-66
2023/09/05 10:56:04;;;;;;;125.30;118.50;;;27.30;57.40;;;;;;5055569;28;20051;-67
2023/09/05 10:58:37;;;;;;;126.70;119.37;;;27.40;57.50;;;;;;5065247;28;20045;-67
2023/09/05 11:01:44;;;;;;;139.73;131.40;;;27.50;56.70;;;;;;5070533;28;20059;-69
2023/09/05 11:04:19;;;;;;;164.53;154.87;;;27.50;56.50;;;;;;5041262;28;20283;-69
2023/09/05 11:06:58;;;;;;;139.83;131.07;;;27.60;57.10;;;;;;5052607;28;20071;-69
2023/09/05 11:09:27;;;;;;;144.73;136.37;;;27.70;55.60;;;;;;5036371;28;20040;-69
2023/09/05 11:11:53;;;;;;;130.73;123.33;;;27.70;56.80;;;;;;5056836;28;20053;-69
2023/09/05 11:14:30;;;;;;;134.77;126.43;;;27.80;56.80;;;;;;5034787;28;20057;-69
2023/09/05 11:16:56;;;;;;;127.80;120.33;;;27.90;57.00;;;;;;5065948;28;20102;-70
2023/09/05 11:19:40;;;;;;;183.70;172.30;;;28.00;55.40;;;;;;5035927;28;20044;-69
2023/09/05 11:22:11;;;;;;;197.43;185.07;;;28.00;52.70;;;;;;5060788;28;20052;-70
2023/09/05 11:24:47;;;;;;;179.07;168.27;;;28.10;53.30;;;;;;5055112;28;20047;-70
2023/09/05 11:27:32;;;;;;;174.57;163.90;;;28.10;53.10;;;;;;5064948;28;20044;-69
2023/09/05 11:30:00;;;;;;;156.00;146.50;;;28.20;52.40;;;;;;5069598;28;20052;-70
2023/09/05 11:32:31;;;;;;;154.37;145.10;;;28.30;53.50;;;;;;5047682;28;20048;-70
2023/09/05 11:34:58;;;;;;;189.23;177.87;;;28.40;53.70;;;;;;5045649;28;20492;-69
2023/09/05 11:37:25;;;;;;;174.57;163.67;;;28.50;53.10;;;;;;5050048;28;20032;-70
2023/09/05 11:39:51;;;;;;;182.00;170.53;;;28.60;53.20;;;;;;5066891;28;20048;-69
2023/09/05 11:42:30;;;;;;;191.13;179.13;;;28.70;53.10;;;;;;5046567;28;20058;-71
2023/09/05 11:44:57;;;;;;;190.37;178.40;;;28.70;53.10;;;;;;5043938;28;20102;-70
2023/09/05 11:47:28;;;;;;;176.17;165.27;;;28.80;53.20;;;;;;5066022;28;20048;-71
2023/09/05 11:49:54;;;;;;;186.67;174.87;;;28.90;52.60;;;;;;5045672;28;20124;-70
2023/09/05 11:52:23;;;;;;;252.73;235.10;;;28.90;51.70;;;;;;5040898;28;20484;-70
2023/09/05 11:54:51;;;;;;;200.23;187.83;;;28.90;49.60;;;;;;5059615;28;20040;-69
2023/09/05 11:57:19;;;;;;;202.03;188.90;;;28.80;50.30;;;;;;5040755;28;20044;-69
2023/09/05 11:59:46;;;;;;;251.70;235.10;;;28.80;50.90;;;;;;5065020;28;20036;-70
2023/09/05 12:02:15;;;;;;;216.37;202.27;;;28.80;49.70;;;;;;5041299;28;20330;-70
2023/09/05 12:04:42;;;;;;;174.23;163.20;;;28.80;50.80;;;;;;5048043;28;20134;-69
2023/09/05 12:07:08;;;;;;;201.43;187.83;;;28.80;51.70;;;;;;5058557;28;20044;-70
2023/09/05 12:09:34;;;;;;;208.53;194.67;;;28.90;50.10;;;;;;5067715;28;20037;-69
2023/09/05 12:12:11;;;;;;;197.03;184.33;;;28.90;51.70;;;;;;5053390;28;20052;-69
2023/09/05 12:15:07;;;;;;;191.17;178.63;;;29.00;51.50;;;;;;5057164;28;20084;-69
2023/09/05 12:17:33;;;;;;;239.53;224.30;;;29.10;51.60;;;;;;5063398;28;20098;-70
2023/09/05 12:19:58;;;;;;;186.20;174.37;;;29.20;51.70;;;;;;5068406;28;20040;-69
2023/09/05 12:22:26;;;;;;;206.73;193.03;;;29.30;51.30;;;;;;5062964;28;20036;-69
2023/09/05 12:25:11;;;;;;;227.97;213.03;;;29.30;50.50;;;;;;5044911;28;20387;-70